Stella Ada — 9V9082 — position and weather

sailwx.info

Track history (hours):
 
Tides and Currents Weather Stations Pressure Air Temp Water Temp Dewpoint Dewpoint Depression Visibility Wind Speed Wind Dir Waves Ship Positions

Stella Ada

Last reported at 2015-Aug-29 07:22 UTC. Time now 2015-Sep-02 04:23 UTC.
Position N 36°36' W 000°49'.

Length 296 m; draft 9.1 m.

Type: Cargo ship. MMSI: 566089000.

Date/timePositionNaut miles runAvg speedWind from/ knotsBaromVisibWave heightAir tempDewpointWater temp
2015-Aug-29 07:22N 36°36' W 000°49'1012.6
2015-Aug-29 06:33N 36°38' W 000°37'1312.9
2015-Aug-29 05:34N 36°40' W 000°21'2512.4
2015-Aug-29 03:33N 36°41' E 000°10'1312.8
2015-Aug-29 02:32N 36°43' E 000°26'1312.4
2015-Aug-29 01:29N 36°46' E 000°42'3712.7
2015-Aug-28 22:33N 36°50' E 001°28'1313.3
2015-Aug-28 21:33N 36°53' E 001°44'2613.0
2015-Aug-28 19:33N 36°59' E 002°16'1211.7
2015-Aug-28 18:32N 36°58' E 002°31'9412.6
2015-Aug-28 11:06N 37°14' E 004°27'5912.2
2015-Aug-28 06:15N 37°18' E 005°41'8712.4
2015-Aug-27 23:11N 37°27' E 007°31'912.8
2015-Aug-27 22:31N 37°28' E 007°41'1212.9
2015-Aug-27 21:34N 37°30' E 007°57'1313.0
2015-Aug-27 20:33N 37°33' E 008°13'2613.0
2015-Aug-27 18:33N 37°38' E 008°45'1312.7
2015-Aug-27 17:33N 37°41' E 009°01'1211.4
2015-Aug-27 16:32N 37°39' E 009°16'1111.2
2015-Aug-27 15:33N 37°40' E 009°29'1211.9
2015-Aug-27 14:33N 37°40' E 009°45'1312.2
2015-Aug-27 13:30N 37°39' E 010°01'2412.5
2015-Aug-27 11:33N 37°35' E 010°31'1612.1
2015-Aug-27 10:15N 37°31' E 010°50'912.1
2015-Aug-27 09:33N 37°29' E 011°01'1412.2
2015-Aug-27 08:25N 37°25' E 011°17'1012.3
2015-Aug-27 07:33N 37°21' E 011°30'1312.6
2015-Aug-27 06:33N 37°19' E 011°45'1212.4
2015-Aug-27 05:33N 37°14' E 012°00'1212.5
2015-Aug-27 04:33N 37°11' E 012°15'1612.5
2015-Aug-27 03:15N 37°07' E 012°35'912.7
2015-Aug-27 02:33N 37°05' E 012°46'1312.9
2015-Aug-27 01:33N 37°01' E 013°01'1313.0
2015-Aug-27 00:33N 36°58' E 013°17'1313.0
2015-Aug-26 23:33N 36°54' E 013°32'1313.1
2015-Aug-26 22:33N 36°51' E 013°48'1313.1
2015-Aug-26 21:33N 36°47' E 014°04'1312.8
2015-Aug-26 20:33N 36°44' E 014°19'1212.4
2015-Aug-26 19:34N 36°40' E 014°34'1212.3
2015-Aug-26 18:33N 36°37' E 014°49'1312.8
2015-Aug-26 17:33N 36°35' E 015°05'7612.6
2015-Aug-26 11:33N 37°35' E 016°03'  
Track history (hours):
 
Tides and Currents Weather Stations Pressure Air Temp Water Temp Dewpoint Dewpoint Depression Visibility Wind Speed Wind Dir Waves Ship Positions

Stella Ada

Last reported at 2015-Aug-29 07:22 UTC. Time now 2015-Sep-02 04:23 UTC.
Position N 36°36' W 000°49'.

Length 296 m; draft 9.1 m.

Type: Cargo ship. MMSI: 566089000.

Date/timePositionNaut miles runAvg speedWind from/ knotsBaromVisibWave heightAir tempDewpointWater temp
2015-Aug-29 07:22N 36°36' W 000°49'1012.6
2015-Aug-29 06:33N 36°38' W 000°37'1312.9
2015-Aug-29 05:34N 36°40' W 000°21'2512.4
2015-Aug-29 03:33N 36°41' E 000°10'1312.8
2015-Aug-29 02:32N 36°43' E 000°26'1312.4
2015-Aug-29 01:29N 36°46' E 000°42'3712.7
2015-Aug-28 22:33N 36°50' E 001°28'1313.3
2015-Aug-28 21:33N 36°53' E 001°44'2613.0
2015-Aug-28 19:33N 36°59' E 002°16'1211.7
2015-Aug-28 18:32N 36°58' E 002°31'9412.6
2015-Aug-28 11:06N 37°14' E 004°27'5912.2
2015-Aug-28 06:15N 37°18' E 005°41'8712.4
2015-Aug-27 23:11N 37°27' E 007°31'912.8
2015-Aug-27 22:31N 37°28' E 007°41'1212.9
2015-Aug-27 21:34N 37°30' E 007°57'1313.0
2015-Aug-27 20:33N 37°33' E 008°13'2613.0
2015-Aug-27 18:33N 37°38' E 008°45'1312.7
2015-Aug-27 17:33N 37°41' E 009°01'1211.4
2015-Aug-27 16:32N 37°39' E 009°16'1111.2
2015-Aug-27 15:33N 37°40' E 009°29'1211.9
2015-Aug-27 14:33N 37°40' E 009°45'1312.2
2015-Aug-27 13:30N 37°39' E 010°01'2412.5
2015-Aug-27 11:33N 37°35' E 010°31'1612.1
2015-Aug-27 10:15N 37°31' E 010°50'912.1
2015-Aug-27 09:33N 37°29' E 011°01'1412.2
2015-Aug-27 08:25N 37°25' E 011°17'1012.3
2015-Aug-27 07:33N 37°21' E 011°30'1312.6
2015-Aug-27 06:33N 37°19' E 011°45'1212.4
2015-Aug-27 05:33N 37°14' E 012°00'1212.5
2015-Aug-27 04:33N 37°11' E 012°15'1612.5
2015-Aug-27 03:15N 37°07' E 012°35'912.7
2015-Aug-27 02:33N 37°05' E 012°46'1312.9
2015-Aug-27 01:33N 37°01' E 013°01'1313.0
2015-Aug-27 00:33N 36°58' E 013°17'1313.0
2015-Aug-26 23:33N 36°54' E 013°32'1313.1
2015-Aug-26 22:33N 36°51' E 013°48'1313.1
2015-Aug-26 21:33N 36°47' E 014°04'1312.8
2015-Aug-26 20:33N 36°44' E 014°19'1212.4
2015-Aug-26 19:34N 36°40' E 014°34'1212.3
2015-Aug-26 18:33N 36°37' E 014°49'1312.8
2015-Aug-26 17:33N 36°35' E 015°05'7612.6
2015-Aug-26 11:33N 37°35' E 016°03'  

Dump ship's entire track history